sensor_id;sensor_type;location;lat;lon;timestamp;P1;durP1;ratioP1;P2;durP2;ratioP2
7707;SDS011;3896;48.758;8.888;2022-12-18T00:00:44;24.00;;;11.73;;
7707;SDS011;3896;48.758;8.888;2022-12-18T00:03:11;20.20;;;11.13;;
7707;SDS011;3896;48.758;8.888;2022-12-18T00:05:37;23.17;;;11.07;;
7707;SDS011;3896;48.758;8.888;2022-12-18T00:08:11;24.00;;;10.43;;
7707;SDS011;3896;48.758;8.888;2022-12-18T00:10:37;21.57;;;10.90;;
7707;SDS011;3896;48.758;8.888;2022-12-18T00:13:02;19.30;;;10.40;;
7707;SDS011;3896;48.758;8.888;2022-12-18T00:15:28;22.47;;;11.03;;
7707;SDS011;3896;48.758;8.888;2022-12-18T00:17:53;25.70;;;10.70;;
7707;SDS011;3896;48.758;8.888;2022-12-18T00:20:19;24.00;;;11.97;;
7707;SDS011;3896;48.758;8.888;2022-12-18T00:22:50;23.77;;;10.80;;
7707;SDS011;3896;48.758;8.888;2022-12-18T00:25:16;22.87;;;12.13;;
7707;SDS011;3896;48.758;8.888;2022-12-18T00:27:42;18.90;;;9.23;;
7707;SDS011;3896;48.758;8.888;2022-12-18T00:30:08;21.23;;;12.00;;
7707;SDS011;3896;48.758;8.888;2022-12-18T00:32:34;16.83;;;8.80;;
7707;SDS011;3896;48.758;8.888;2022-12-18T00:35:00;22.90;;;11.43;;
7707;SDS011;3896;48.758;8.888;2022-12-18T00:37:25;22.07;;;10.97;;
7707;SDS011;3896;48.758;8.888;2022-12-18T00:39:51;20.43;;;10.40;;
7707;SDS011;3896;48.758;8.888;2022-12-18T00:42:17;17.33;;;9.73;;
7707;SDS011;3896;48.758;8.888;2022-12-18T00:45:01;20.47;;;10.43;;
7707;SDS011;3896;48.758;8.888;2022-12-18T00:47:26;22.40;;;9.80;;
7707;SDS011;3896;48.758;8.888;2022-12-18T00:49:53;25.37;;;12.43;;
7707;SDS011;3896;48.758;8.888;2022-12-18T00:52:18;22.60;;;9.80;;
7707;SDS011;3896;48.758;8.888;2022-12-18T00:54:44;27.70;;;9.70;;
7707;SDS011;3896;48.758;8.888;2022-12-18T00:57:10;24.50;;;10.23;;
7707;SDS011;3896;48.758;8.888;2022-12-18T00:59:35;27.13;;;10.50;;
7707;SDS011;3896;48.758;8.888;2022-12-18T01:02:01;25.63;;;12.43;;
7707;SDS011;3896;48.758;8.888;2022-12-18T01:04:26;19.37;;;10.23;;
7707;SDS011;3896;48.758;8.888;2022-12-18T01:06:52;24.67;;;12.27;;
7707;SDS011;3896;48.758;8.888;2022-12-18T01:09:17;22.67;;;10.57;;
7707;SDS011;3896;48.758;8.888;2022-12-18T01:11:43;23.50;;;10.93;;
7707;SDS011;3896;48.758;8.888;2022-12-18T01:14:08;27.57;;;10.63;;
7707;SDS011;3896;48.758;8.888;2022-12-18T01:16:34;19.53;;;9.60;;
7707;SDS011;3896;48.758;8.888;2022-12-18T01:19:00;22.67;;;10.90;;
7707;SDS011;3896;48.758;8.888;2022-12-18T01:21:25;19.77;;;9.87;;
7707;SDS011;3896;48.758;8.888;2022-12-18T01:23:52;20.53;;;11.70;;
7707;SDS011;3896;48.758;8.888;2022-12-18T01:26:19;25.57;;;11.33;;
7707;SDS011;3896;48.758;8.888;2022-12-18T01:28:44;24.10;;;10.97;;
7707;SDS011;3896;48.758;8.888;2022-12-18T01:31:17;24.00;;;12.93;;
7707;SDS011;3896;48.758;8.888;2022-12-18T01:33:45;26.23;;;11.47;;
7707;SDS011;3896;48.758;8.888;2022-12-18T01:36:15;27.97;;;13.00;;
7707;SDS011;3896;48.758;8.888;2022-12-18T01:38:45;31.67;;;12.63;;
7707;SDS011;3896;48.758;8.888;2022-12-18T01:41:12;22.87;;;10.53;;
7707;SDS011;3896;48.758;8.888;2022-12-18T01:46:15;25.57;;;12.13;;
7707;SDS011;3896;48.758;8.888;2022-12-18T01:48:42;20.33;;;11.17;;
7707;SDS011;3896;48.758;8.888;2022-12-18T01:51:09;24.47;;;12.03;;
7707;SDS011;3896;48.758;8.888;2022-12-18T01:53:36;26.90;;;10.83;;
7707;SDS011;3896;48.758;8.888;2022-12-18T01:56:04;18.03;;;11.43;;
7707;SDS011;3896;48.758;8.888;2022-12-18T02:01:00;25.27;;;12.10;;
7707;SDS011;3896;48.758;8.888;2022-12-18T02:03:26;22.93;;;11.30;;
7707;SDS011;3896;48.758;8.888;2022-12-18T02:06:00;31.50;;;14.17;;
7707;SDS011;3896;48.758;8.888;2022-12-18T02:08:30;25.87;;;12.03;;
7707;SDS011;3896;48.758;8.888;2022-12-18T02:19:22;29.23;;;13.13;;
7707;SDS011;3896;48.758;8.888;2022-12-18T02:22:23;31.50;;;14.20;;
7707;SDS011;3896;48.758;8.888;2022-12-18T02:27:32;34.83;;;12.70;;
7707;SDS011;3896;48.758;8.888;2022-12-18T02:30:01;19.43;;;9.97;;
7707;SDS011;3896;48.758;8.888;2022-12-18T02:32:30;21.47;;;10.70;;
7707;SDS011;3896;48.758;8.888;2022-12-18T02:35:03;22.40;;;12.63;;
7707;SDS011;3896;48.758;8.888;2022-12-18T02:37:30;26.13;;;13.57;;
7707;SDS011;3896;48.758;8.888;2022-12-18T02:39:58;23.10;;;12.17;;
7707;SDS011;3896;48.758;8.888;2022-12-18T02:42:25;26.90;;;13.00;;
7707;SDS011;3896;48.758;8.888;2022-12-18T02:44:54;21.50;;;11.33;;
7707;SDS011;3896;48.758;8.888;2022-12-18T02:47:20;25.47;;;11.27;;
7707;SDS011;3896;48.758;8.888;2022-12-18T02:49:53;19.83;;;10.63;;
7707;SDS011;3896;48.758;8.888;2022-12-18T02:52:25;30.17;;;12.17;;
7707;SDS011;3896;48.758;8.888;2022-12-18T02:55:16;23.13;;;11.30;;
7707;SDS011;3896;48.758;8.888;2022-12-18T02:57:53;20.73;;;10.90;;
7707;SDS011;3896;48.758;8.888;2022-12-18T03:00:23;18.77;;;9.57;;
7707;SDS011;3896;48.758;8.888;2022-12-18T03:05:20;14.63;;;9.00;;
7707;SDS011;3896;48.758;8.888;2022-12-18T03:08:08;22.57;;;9.77;;
7707;SDS011;3896;48.758;8.888;2022-12-18T03:10:41;20.37;;;10.10;;
7707;SDS011;3896;48.758;8.888;2022-12-18T03:13:15;14.43;;;10.33;;
7707;SDS011;3896;48.758;8.888;2022-12-18T03:15:51;18.90;;;9.47;;
7707;SDS011;3896;48.758;8.888;2022-12-18T03:18:21;24.33;;;11.83;;
7707;SDS011;3896;48.758;8.888;2022-12-18T03:20:55;21.90;;;8.87;;
7707;SDS011;3896;48.758;8.888;2022-12-18T03:23:26;24.10;;;11.90;;
7707;SDS011;3896;48.758;8.888;2022-12-18T03:25:54;19.47;;;10.20;;
7707;SDS011;3896;48.758;8.888;2022-12-18T03:28:24;27.37;;;14.13;;
7707;SDS011;3896;48.758;8.888;2022-12-18T03:30:53;24.67;;;11.67;;
7707;SDS011;3896;48.758;8.888;2022-12-18T03:33:26;24.57;;;11.77;;
7707;SDS011;3896;48.758;8.888;2022-12-18T03:35:54;18.93;;;9.30;;
7707;SDS011;3896;48.758;8.888;2022-12-18T03:38:20;18.63;;;9.97;;
7707;SDS011;3896;48.758;8.888;2022-12-18T03:43:32;21.70;;;11.87;;
7707;SDS011;3896;48.758;8.888;2022-12-18T03:46:08;27.10;;;14.00;;
7707;SDS011;3896;48.758;8.888;2022-12-18T03:48:43;21.17;;;12.73;;
7707;SDS011;3896;48.758;8.888;2022-12-18T03:51:18;27.37;;;13.30;;
7707;SDS011;3896;48.758;8.888;2022-12-18T03:53:53;27.03;;;13.23;;
7707;SDS011;3896;48.758;8.888;2022-12-18T03:56:20;26.90;;;12.37;;
7707;SDS011;3896;48.758;8.888;2022-12-18T03:58:48;27.17;;;13.70;;
7707;SDS011;3896;48.758;8.888;2022-12-18T04:01:17;29.77;;;16.07;;
7707;SDS011;3896;48.758;8.888;2022-12-18T04:03:47;29.93;;;15.23;;
7707;SDS011;3896;48.758;8.888;2022-12-18T04:06:14;31.77;;;14.73;;
7707;SDS011;3896;48.758;8.888;2022-12-18T04:08:41;30.67;;;14.93;;
7707;SDS011;3896;48.758;8.888;2022-12-18T04:11:07;24.33;;;13.00;;
7707;SDS011;3896;48.758;8.888;2022-12-18T04:13:36;19.70;;;12.47;;
7707;SDS011;3896;48.758;8.888;2022-12-18T04:16:03;29.37;;;13.70;;
7707;SDS011;3896;48.758;8.888;2022-12-18T04:18:28;36.80;;;14.53;;
7707;SDS011;3896;48.758;8.888;2022-12-18T04:20:54;31.83;;;15.23;;
7707;SDS011;3896;48.758;8.888;2022-12-18T04:23:20;35.87;;;15.63;;
7707;SDS011;3896;48.758;8.888;2022-12-18T04:25:46;33.23;;;13.80;;
7707;SDS011;3896;48.758;8.888;2022-12-18T04:28:13;27.10;;;12.77;;
7707;SDS011;3896;48.758;8.888;2022-12-18T04:30:38;25.87;;;13.57;;
7707;SDS011;3896;48.758;8.888;2022-12-18T04:33:07;25.10;;;12.03;;
7707;SDS011;3896;48.758;8.888;2022-12-18T04:35:34;29.93;;;13.43;;
7707;SDS011;3896;48.758;8.888;2022-12-18T04:37:59;29.30;;;12.07;;
7707;SDS011;3896;48.758;8.888;2022-12-18T04:40:25;29.47;;;13.30;;
7707;SDS011;3896;48.758;8.888;2022-12-18T04:42:50;21.17;;;11.13;;
7707;SDS011;3896;48.758;8.888;2022-12-18T04:45:16;31.50;;;13.10;;
7707;SDS011;3896;48.758;8.888;2022-12-18T04:47:42;30.93;;;16.03;;
7707;SDS011;3896;48.758;8.888;2022-12-18T04:50:07;24.57;;;12.80;;
7707;SDS011;3896;48.758;8.888;2022-12-18T04:52:33;25.23;;;10.70;;
7707;SDS011;3896;48.758;8.888;2022-12-18T04:54:59;28.67;;;14.47;;
7707;SDS011;3896;48.758;8.888;2022-12-18T04:57:24;23.67;;;12.83;;
7707;SDS011;3896;48.758;8.888;2022-12-18T04:59:50;32.27;;;13.07;;
7707;SDS011;3896;48.758;8.888;2022-12-18T05:02:15;28.13;;;12.77;;
7707;SDS011;3896;48.758;8.888;2022-12-18T05:04:41;35.30;;;15.27;;
7707;SDS011;3896;48.758;8.888;2022-12-18T05:07:06;26.00;;;12.73;;
7707;SDS011;3896;48.758;8.888;2022-12-18T05:09:32;38.33;;;13.93;;
7707;SDS011;3896;48.758;8.888;2022-12-18T05:11:57;26.80;;;10.93;;
7707;SDS011;3896;48.758;8.888;2022-12-18T05:14:23;28.57;;;12.93;;
7707;SDS011;3896;48.758;8.888;2022-12-18T05:16:48;33.07;;;13.67;;
7707;SDS011;3896;48.758;8.888;2022-12-18T05:19:14;30.67;;;13.63;;
7707;SDS011;3896;48.758;8.888;2022-12-18T05:21:39;19.73;;;9.57;;
7707;SDS011;3896;48.758;8.888;2022-12-18T05:24:05;30.50;;;13.33;;
7707;SDS011;3896;48.758;8.888;2022-12-18T05:26:31;27.17;;;11.80;;
7707;SDS011;3896;48.758;8.888;2022-12-18T05:28:56;34.43;;;13.33;;
7707;SDS011;3896;48.758;8.888;2022-12-18T05:31:22;43.60;;;14.27;;
7707;SDS011;3896;48.758;8.888;2022-12-18T05:33:47;34.53;;;14.63;;
7707;SDS011;3896;48.758;8.888;2022-12-18T05:36:13;31.07;;;14.53;;
7707;SDS011;3896;48.758;8.888;2022-12-18T05:38:38;30.17;;;11.50;;
7707;SDS011;3896;48.758;8.888;2022-12-18T05:41:04;31.90;;;13.47;;
7707;SDS011;3896;48.758;8.888;2022-12-18T05:43:31;32.97;;;14.47;;
7707;SDS011;3896;48.758;8.888;2022-12-18T05:46:02;27.50;;;11.63;;
7707;SDS011;3896;48.758;8.888;2022-12-18T05:48:29;42.57;;;14.17;;
7707;SDS011;3896;48.758;8.888;2022-12-18T05:50:54;34.47;;;12.53;;
7707;SDS011;3896;48.758;8.888;2022-12-18T05:53:20;36.23;;;12.33;;
7707;SDS011;3896;48.758;8.888;2022-12-18T05:55:46;33.13;;;15.03;;
7707;SDS011;3896;48.758;8.888;2022-12-18T05:58:12;46.10;;;18.37;;
7707;SDS011;3896;48.758;8.888;2022-12-18T06:00:40;40.60;;;17.43;;
7707;SDS011;3896;48.758;8.888;2022-12-18T06:03:07;45.60;;;16.90;;
7707;SDS011;3896;48.758;8.888;2022-12-18T06:05:35;39.60;;;15.27;;
7707;SDS011;3896;48.758;8.888;2022-12-18T06:08:02;36.17;;;14.77;;
7707;SDS011;3896;48.758;8.888;2022-12-18T06:10:28;38.07;;;14.47;;
7707;SDS011;3896;48.758;8.888;2022-12-18T06:12:53;45.03;;;15.67;;
7707;SDS011;3896;48.758;8.888;2022-12-18T06:15:19;45.20;;;15.73;;
7707;SDS011;3896;48.758;8.888;2022-12-18T06:17:44;40.47;;;16.47;;
7707;SDS011;3896;48.758;8.888;2022-12-18T06:20:10;39.43;;;17.70;;
7707;SDS011;3896;48.758;8.888;2022-12-18T06:22:35;37.77;;;15.43;;
7707;SDS011;3896;48.758;8.888;2022-12-18T06:25:01;37.83;;;14.83;;
7707;SDS011;3896;48.758;8.888;2022-12-18T06:27:27;42.63;;;16.83;;
7707;SDS011;3896;48.758;8.888;2022-12-18T06:29:52;40.57;;;17.33;;
7707;SDS011;3896;48.758;8.888;2022-12-18T06:32:18;41.90;;;15.40;;
7707;SDS011;3896;48.758;8.888;2022-12-18T06:34:43;34.50;;;16.17;;
7707;SDS011;3896;48.758;8.888;2022-12-18T06:37:09;41.47;;;16.73;;
7707;SDS011;3896;48.758;8.888;2022-12-18T06:39:34;43.73;;;16.03;;
7707;SDS011;3896;48.758;8.888;2022-12-18T06:42:00;33.87;;;15.23;;
7707;SDS011;3896;48.758;8.888;2022-12-18T06:44:26;41.53;;;16.40;;
7707;SDS011;3896;48.758;8.888;2022-12-18T06:46:51;36.53;;;15.93;;
7707;SDS011;3896;48.758;8.888;2022-12-18T06:49:17;30.40;;;14.70;;
7707;SDS011;3896;48.758;8.888;2022-12-18T06:51:42;38.07;;;16.47;;
7707;SDS011;3896;48.758;8.888;2022-12-18T06:54:08;42.63;;;15.20;;
7707;SDS011;3896;48.758;8.888;2022-12-18T06:56:33;34.70;;;15.17;;
7707;SDS011;3896;48.758;8.888;2022-12-18T06:58:59;58.90;;;25.95;;
7707;SDS011;3896;48.758;8.888;2022-12-18T07:01:25;35.60;;;16.70;;
7707;SDS011;3896;48.758;8.888;2022-12-18T07:03:51;37.57;;;17.53;;
7707;SDS011;3896;48.758;8.888;2022-12-18T07:06:19;43.90;;;17.00;;
7707;SDS011;3896;48.758;8.888;2022-12-18T07:08:46;36.00;;;16.17;;
7707;SDS011;3896;48.758;8.888;2022-12-18T07:11:13;42.37;;;15.53;;
7707;SDS011;3896;48.758;8.888;2022-12-18T07:13:39;38.03;;;16.37;;
7707;SDS011;3896;48.758;8.888;2022-12-18T07:16:08;36.70;;;15.63;;
7707;SDS011;3896;48.758;8.888;2022-12-18T07:18:36;38.10;;;17.60;;
7707;SDS011;3896;48.758;8.888;2022-12-18T07:21:02;43.63;;;16.00;;
7707;SDS011;3896;48.758;8.888;2022-12-18T07:23:33;37.70;;;15.07;;
7707;SDS011;3896;48.758;8.888;2022-12-18T07:26:00;31.53;;;14.70;;
7707;SDS011;3896;48.758;8.888;2022-12-18T07:28:30;36.17;;;15.10;;
7707;SDS011;3896;48.758;8.888;2022-12-18T07:30:56;33.60;;;15.30;;
7707;SDS011;3896;48.758;8.888;2022-12-18T07:33:22;33.37;;;15.00;;
7707;SDS011;3896;48.758;8.888;2022-12-18T07:35:47;31.93;;;14.33;;
7707;SDS011;3896;48.758;8.888;2022-12-18T07:38:13;38.77;;;14.80;;
7707;SDS011;3896;48.758;8.888;2022-12-18T07:40:38;39.27;;;15.00;;
7707;SDS011;3896;48.758;8.888;2022-12-18T07:43:04;33.53;;;14.73;;
7707;SDS011;3896;48.758;8.888;2022-12-18T07:45:29;41.80;;;15.40;;
7707;SDS011;3896;48.758;8.888;2022-12-18T07:47:55;33.60;;;14.43;;
7707;SDS011;3896;48.758;8.888;2022-12-18T07:50:21;40.50;;;16.03;;
7707;SDS011;3896;48.758;8.888;2022-12-18T07:52:46;33.13;;;13.87;;
7707;SDS011;3896;48.758;8.888;2022-12-18T07:55:12;33.33;;;14.87;;
7707;SDS011;3896;48.758;8.888;2022-12-18T07:57:38;32.40;;;14.40;;
7707;SDS011;3896;48.758;8.888;2022-12-18T08:00:03;23.47;;;13.67;;
7707;SDS011;3896;48.758;8.888;2022-12-18T08:02:30;41.40;;;16.63;;
7707;SDS011;3896;48.758;8.888;2022-12-18T08:04:56;35.77;;;15.50;;
7707;SDS011;3896;48.758;8.888;2022-12-18T08:07:22;37.30;;;14.97;;
7707;SDS011;3896;48.758;8.888;2022-12-18T08:09:48;29.40;;;12.87;;
7707;SDS011;3896;48.758;8.888;2022-12-18T08:12:14;32.53;;;14.87;;
7707;SDS011;3896;48.758;8.888;2022-12-18T08:14:40;42.77;;;14.37;;
7707;SDS011;3896;48.758;8.888;2022-12-18T08:17:06;47.20;;;15.93;;
7707;SDS011;3896;48.758;8.888;2022-12-18T08:19:31;36.00;;;14.23;;
7707;SDS011;3896;48.758;8.888;2022-12-18T08:21:57;29.63;;;13.13;;
7707;SDS011;3896;48.758;8.888;2022-12-18T08:24:23;39.60;;;16.03;;
7707;SDS011;3896;48.758;8.888;2022-12-18T08:26:48;40.70;;;15.33;;
7707;SDS011;3896;48.758;8.888;2022-12-18T08:29:14;35.43;;;13.97;;
7707;SDS011;3896;48.758;8.888;2022-12-18T08:31:39;39.60;;;15.73;;
7707;SDS011;3896;48.758;8.888;2022-12-18T08:34:05;47.37;;;15.67;;
7707;SDS011;3896;48.758;8.888;2022-12-18T08:36:30;36.83;;;14.37;;
7707;SDS011;3896;48.758;8.888;2022-12-18T08:38:56;35.57;;;14.90;;
7707;SDS011;3896;48.758;8.888;2022-12-18T08:41:22;40.87;;;16.43;;
7707;SDS011;3896;48.758;8.888;2022-12-18T08:43:48;36.13;;;14.03;;
7707;SDS011;3896;48.758;8.888;2022-12-18T08:46:36;50.80;;;18.60;;
7707;SDS011;3896;48.758;8.888;2022-12-18T08:49:04;33.67;;;14.40;;
7707;SDS011;3896;48.758;8.888;2022-12-18T08:51:30;37.00;;;14.80;;
7707;SDS011;3896;48.758;8.888;2022-12-18T08:53:56;36.80;;;16.40;;
7707;SDS011;3896;48.758;8.888;2022-12-18T08:56:22;33.07;;;15.10;;
7707;SDS011;3896;48.758;8.888;2022-12-18T08:58:50;38.80;;;16.97;;
7707;SDS011;3896;48.758;8.888;2022-12-18T09:01:17;35.30;;;13.10;;
7707;SDS011;3896;48.758;8.888;2022-12-18T09:03:42;40.17;;;16.03;;
7707;SDS011;3896;48.758;8.888;2022-12-18T09:06:08;39.73;;;16.10;;
7707;SDS011;3896;48.758;8.888;2022-12-18T09:08:34;38.70;;;15.13;;
7707;SDS011;3896;48.758;8.888;2022-12-18T09:10:59;39.23;;;16.87;;
7707;SDS011;3896;48.758;8.888;2022-12-18T09:13:25;46.63;;;17.40;;
7707;SDS011;3896;48.758;8.888;2022-12-18T09:15:51;43.10;;;17.97;;
7707;SDS011;3896;48.758;8.888;2022-12-18T09:18:19;41.90;;;16.77;;
7707;SDS011;3896;48.758;8.888;2022-12-18T09:20:45;47.13;;;17.77;;
7707;SDS011;3896;48.758;8.888;2022-12-18T09:23:11;48.30;;;18.40;;
7707;SDS011;3896;48.758;8.888;2022-12-18T09:25:38;46.83;;;18.47;;
7707;SDS011;3896;48.758;8.888;2022-12-18T09:28:09;40.13;;;17.13;;
7707;SDS011;3896;48.758;8.888;2022-12-18T09:30:40;42.13;;;16.77;;
7707;SDS011;3896;48.758;8.888;2022-12-18T09:33:07;48.97;;;17.77;;
7707;SDS011;3896;48.758;8.888;2022-12-18T09:35:35;45.77;;;18.07;;
7707;SDS011;3896;48.758;8.888;2022-12-18T09:38:02;41.40;;;19.53;;
7707;SDS011;3896;48.758;8.888;2022-12-18T09:40:28;43.33;;;17.73;;
7707;SDS011;3896;48.758;8.888;2022-12-18T09:43:00;42.07;;;17.37;;
7707;SDS011;3896;48.758;8.888;2022-12-18T09:45:38;46.83;;;17.07;;
7707;SDS011;3896;48.758;8.888;2022-12-18T09:48:11;49.23;;;19.03;;
7707;SDS011;3896;48.758;8.888;2022-12-18T09:50:59;48.53;;;19.27;;
7707;SDS011;3896;48.758;8.888;2022-12-18T09:53:30;47.23;;;18.80;;
7707;SDS011;3896;48.758;8.888;2022-12-18T09:56:00;41.40;;;17.47;;
7707;SDS011;3896;48.758;8.888;2022-12-18T10:01:00;38.43;;;17.10;;
7707;SDS011;3896;48.758;8.888;2022-12-18T10:03:26;41.07;;;16.80;;
7707;SDS011;3896;48.758;8.888;2022-12-18T10:05:59;39.17;;;17.57;;
7707;SDS011;3896;48.758;8.888;2022-12-18T10:11:38;43.43;;;18.40;;
7707;SDS011;3896;48.758;8.888;2022-12-18T10:16:45;38.37;;;16.20;;
7707;SDS011;3896;48.758;8.888;2022-12-18T10:22:16;38.33;;;17.70;;
7707;SDS011;3896;48.758;8.888;2022-12-18T10:25:05;36.57;;;17.07;;
7707;SDS011;3896;48.758;8.888;2022-12-18T10:27:53;31.63;;;15.50;;
7707;SDS011;3896;48.758;8.888;2022-12-18T10:30:23;31.70;;;16.27;;
7707;SDS011;3896;48.758;8.888;2022-12-18T10:32:49;35.67;;;16.43;;
7707;SDS011;3896;48.758;8.888;2022-12-18T10:35:25;38.57;;;16.90;;
7707;SDS011;3896;48.758;8.888;2022-12-18T10:46:03;33.10;;;15.90;;
7707;SDS011;3896;48.758;8.888;2022-12-18T10:48:40;37.37;;;16.37;;
7707;SDS011;3896;48.758;8.888;2022-12-18T10:54:00;33.30;;;14.97;;
7707;SDS011;3896;48.758;8.888;2022-12-18T10:56:30;33.27;;;15.03;;
7707;SDS011;3896;48.758;8.888;2022-12-18T10:58:58;32.70;;;16.53;;
7707;SDS011;3896;48.758;8.888;2022-12-18T11:01:45;38.93;;;16.20;;
7707;SDS011;3896;48.758;8.888;2022-12-18T11:04:20;36.97;;;16.17;;
7707;SDS011;3896;48.758;8.888;2022-12-18T11:09:21;34.57;;;18.33;;
7707;SDS011;3896;48.758;8.888;2022-12-18T11:11:52;38.93;;;16.70;;
7707;SDS011;3896;48.758;8.888;2022-12-18T11:14:27;34.67;;;18.13;;
7707;SDS011;3896;48.758;8.888;2022-12-18T11:17:16;33.27;;;18.87;;
7707;SDS011;3896;48.758;8.888;2022-12-18T11:20:00;32.83;;;15.53;;
7707;SDS011;3896;48.758;8.888;2022-12-18T11:23:00;34.23;;;18.10;;
7707;SDS011;3896;48.758;8.888;2022-12-18T11:25:28;31.03;;;17.03;;
7707;SDS011;3896;48.758;8.888;2022-12-18T11:27:56;36.07;;;17.50;;
7707;SDS011;3896;48.758;8.888;2022-12-18T11:30:28;36.07;;;17.47;;
7707;SDS011;3896;48.758;8.888;2022-12-18T11:32:55;33.00;;;16.90;;
7707;SDS011;3896;48.758;8.888;2022-12-18T11:35:49;31.67;;;16.10;;
7707;SDS011;3896;48.758;8.888;2022-12-18T11:38:22;36.07;;;17.57;;
7707;SDS011;3896;48.758;8.888;2022-12-18T11:41:15;32.07;;;15.20;;
7707;SDS011;3896;48.758;8.888;2022-12-18T11:43:47;36.07;;;16.20;;
7707;SDS011;3896;48.758;8.888;2022-12-18T11:46:19;35.43;;;17.07;;
7707;SDS011;3896;48.758;8.888;2022-12-18T11:48:58;37.13;;;17.80;;
7707;SDS011;3896;48.758;8.888;2022-12-18T11:51:38;39.37;;;18.07;;
7707;SDS011;3896;48.758;8.888;2022-12-18T11:54:13;32.47;;;16.20;;
7707;SDS011;3896;48.758;8.888;2022-12-18T11:56:46;37.87;;;19.03;;
7707;SDS011;3896;48.758;8.888;2022-12-18T11:59:23;36.03;;;18.23;;
7707;SDS011;3896;48.758;8.888;2022-12-18T12:07:31;35.63;;;17.67;;
7707;SDS011;3896;48.758;8.888;2022-12-18T12:13:01;36.33;;;16.50;;
7707;SDS011;3896;48.758;8.888;2022-12-18T12:15:47;36.77;;;17.83;;
7707;SDS011;3896;48.758;8.888;2022-12-18T12:18:31;37.83;;;19.13;;
7707;SDS011;3896;48.758;8.888;2022-12-18T12:21:21;31.97;;;16.57;;
7707;SDS011;3896;48.758;8.888;2022-12-18T12:23:59;37.03;;;17.53;;
7707;SDS011;3896;48.758;8.888;2022-12-18T12:29:24;37.87;;;20.10;;
7707;SDS011;3896;48.758;8.888;2022-12-18T12:31:55;37.17;;;17.57;;
7707;SDS011;3896;48.758;8.888;2022-12-18T12:40:13;36.00;;;18.03;;
7707;SDS011;3896;48.758;8.888;2022-12-18T12:42:55;33.20;;;16.60;;
7707;SDS011;3896;48.758;8.888;2022-12-18T12:48:45;34.70;;;16.53;;
7707;SDS011;3896;48.758;8.888;2022-12-18T12:51:23;35.63;;;17.13;;
7707;SDS011;3896;48.758;8.888;2022-12-18T12:53:53;35.20;;;17.17;;
7707;SDS011;3896;48.758;8.888;2022-12-18T12:56:21;32.23;;;16.33;;
7707;SDS011;3896;48.758;8.888;2022-12-18T12:58:55;34.80;;;16.97;;
7707;SDS011;3896;48.758;8.888;2022-12-18T13:01:41;35.83;;;17.93;;
7707;SDS011;3896;48.758;8.888;2022-12-18T13:04:23;39.50;;;18.37;;
7707;SDS011;3896;48.758;8.888;2022-12-18T13:07:06;34.83;;;16.37;;
7707;SDS011;3896;48.758;8.888;2022-12-18T13:10:11;32.83;;;18.07;;
7707;SDS011;3896;48.758;8.888;2022-12-18T13:12:54;33.20;;;17.27;;
7707;SDS011;3896;48.758;8.888;2022-12-18T13:20:45;32.97;;;16.30;;
7707;SDS011;3896;48.758;8.888;2022-12-18T13:25:53;31.93;;;16.90;;
7707;SDS011;3896;48.758;8.888;2022-12-18T13:31:13;32.03;;;15.73;;
7707;SDS011;3896;48.758;8.888;2022-12-18T13:33:41;27.63;;;15.20;;
7707;SDS011;3896;48.758;8.888;2022-12-18T13:36:11;33.17;;;15.80;;
7707;SDS011;3896;48.758;8.888;2022-12-18T13:38:37;30.17;;;16.93;;
7707;SDS011;3896;48.758;8.888;2022-12-18T13:41:14;29.30;;;15.57;;
7707;SDS011;3896;48.758;8.888;2022-12-18T13:43:48;30.00;;;15.90;;
7707;SDS011;3896;48.758;8.888;2022-12-18T13:51:32;27.57;;;15.67;;
7707;SDS011;3896;48.758;8.888;2022-12-18T13:56:45;31.03;;;15.50;;
7707;SDS011;3896;48.758;8.888;2022-12-18T14:01:41;28.83;;;14.63;;
7707;SDS011;3896;48.758;8.888;2022-12-18T14:04:32;29.47;;;16.20;;
7707;SDS011;3896;48.758;8.888;2022-12-18T14:07:06;32.33;;;16.40;;
7707;SDS011;3896;48.758;8.888;2022-12-18T14:09:36;30.03;;;15.93;;
7707;SDS011;3896;48.758;8.888;2022-12-18T14:12:06;30.70;;;16.13;;
7707;SDS011;3896;48.758;8.888;2022-12-18T14:14:58;30.00;;;16.30;;
7707;SDS011;3896;48.758;8.888;2022-12-18T14:17:24;32.63;;;16.13;;
7707;SDS011;3896;48.758;8.888;2022-12-18T14:19:50;33.63;;;17.00;;
7707;SDS011;3896;48.758;8.888;2022-12-18T14:22:18;31.43;;;15.90;;
7707;SDS011;3896;48.758;8.888;2022-12-18T14:27:41;30.70;;;16.13;;
7707;SDS011;3896;48.758;8.888;2022-12-18T14:30:25;28.17;;;15.67;;
7707;SDS011;3896;48.758;8.888;2022-12-18T14:33:04;31.97;;;15.87;;
7707;SDS011;3896;48.758;8.888;2022-12-18T14:35:36;28.50;;;14.90;;
7707;SDS011;3896;48.758;8.888;2022-12-18T14:38:15;24.57;;;14.03;;
7707;SDS011;3896;48.758;8.888;2022-12-18T14:40:52;28.53;;;15.10;;
7707;SDS011;3896;48.758;8.888;2022-12-18T14:43:29;30.83;;;15.13;;
7707;SDS011;3896;48.758;8.888;2022-12-18T14:45:58;26.73;;;14.80;;
7707;SDS011;3896;48.758;8.888;2022-12-18T14:53:42;30.93;;;15.10;;
7707;SDS011;3896;48.758;8.888;2022-12-18T14:56:13;28.93;;;14.87;;
7707;SDS011;3896;48.758;8.888;2022-12-18T14:58:48;30.87;;;14.07;;
7707;SDS011;3896;48.758;8.888;2022-12-18T15:01:23;29.83;;;15.20;;
7707;SDS011;3896;48.758;8.888;2022-12-18T15:03:53;32.83;;;16.23;;
7707;SDS011;3896;48.758;8.888;2022-12-18T15:06:31;27.20;;;13.83;;
7707;SDS011;3896;48.758;8.888;2022-12-18T15:08:59;32.37;;;15.90;;
7707;SDS011;3896;48.758;8.888;2022-12-18T15:11:33;29.83;;;14.70;;
7707;SDS011;3896;48.758;8.888;2022-12-18T15:14:04;28.17;;;14.50;;
7707;SDS011;3896;48.758;8.888;2022-12-18T15:16:57;27.33;;;13.83;;
7707;SDS011;3896;48.758;8.888;2022-12-18T15:19:28;27.43;;;14.07;;
7707;SDS011;3896;48.758;8.888;2022-12-18T15:21:59;33.80;;;15.20;;
7707;SDS011;3896;48.758;8.888;2022-12-18T15:24:27;34.23;;;15.93;;
7707;SDS011;3896;48.758;8.888;2022-12-18T15:26:55;29.90;;;15.43;;
7707;SDS011;3896;48.758;8.888;2022-12-18T15:29:21;32.63;;;15.27;;
7707;SDS011;3896;48.758;8.888;2022-12-18T15:34:29;30.63;;;15.40;;
7707;SDS011;3896;48.758;8.888;2022-12-18T15:36:56;30.23;;;15.43;;
7707;SDS011;3896;48.758;8.888;2022-12-18T15:39:21;33.63;;;17.07;;
7707;SDS011;3896;48.758;8.888;2022-12-18T15:41:47;30.50;;;15.43;;
7707;SDS011;3896;48.758;8.888;2022-12-18T15:44:31;31.37;;;15.10;;
7707;SDS011;3896;48.758;8.888;2022-12-18T15:46:57;28.10;;;14.10;;
7707;SDS011;3896;48.758;8.888;2022-12-18T15:49:23;31.43;;;15.77;;
7707;SDS011;3896;48.758;8.888;2022-12-18T15:51:51;33.63;;;15.93;;
7707;SDS011;3896;48.758;8.888;2022-12-18T15:54:19;26.30;;;13.37;;
7707;SDS011;3896;48.758;8.888;2022-12-18T15:57:04;27.40;;;14.13;;
7707;SDS011;3896;48.758;8.888;2022-12-18T15:59:48;31.00;;;13.97;;
7707;SDS011;3896;48.758;8.888;2022-12-18T16:02:18;31.87;;;15.97;;
7707;SDS011;3896;48.758;8.888;2022-12-18T16:04:45;27.13;;;13.10;;
7707;SDS011;3896;48.758;8.888;2022-12-18T16:07:10;34.50;;;16.60;;
7707;SDS011;3896;48.758;8.888;2022-12-18T16:09:36;33.30;;;15.37;;
7707;SDS011;3896;48.758;8.888;2022-12-18T16:12:03;33.13;;;16.00;;
7707;SDS011;3896;48.758;8.888;2022-12-18T16:14:31;32.27;;;14.90;;
7707;SDS011;3896;48.758;8.888;2022-12-18T16:16:58;31.57;;;15.00;;
7707;SDS011;3896;48.758;8.888;2022-12-18T16:19:28;30.53;;;15.20;;
7707;SDS011;3896;48.758;8.888;2022-12-18T16:21:55;33.10;;;15.47;;
7707;SDS011;3896;48.758;8.888;2022-12-18T16:24:24;31.53;;;16.20;;
7707;SDS011;3896;48.758;8.888;2022-12-18T16:26:54;30.23;;;15.50;;
7707;SDS011;3896;48.758;8.888;2022-12-18T16:29:21;34.47;;;15.20;;
7707;SDS011;3896;48.758;8.888;2022-12-18T16:31:49;34.83;;;17.07;;
7707;SDS011;3896;48.758;8.888;2022-12-18T16:34:29;30.20;;;16.10;;
7707;SDS011;3896;48.758;8.888;2022-12-18T16:36:57;36.67;;;18.07;;
7707;SDS011;3896;48.758;8.888;2022-12-18T16:39:24;30.70;;;16.07;;
7707;SDS011;3896;48.758;8.888;2022-12-18T16:41:50;36.33;;;16.77;;